sensor_id;sensor_type;location;lat;lon;timestamp;P1;P2;P0
41382;PMS5003;27971;53.902;9.118;2023-01-19T00:05:09;3.7;3.53;
41382;PMS5003;27971;53.902;9.118;2023-01-19T00:07:12;4.74;4.24;
41382;PMS5003;27971;53.902;9.118;2023-01-19T00:09:15;3.49;3.39;
41382;PMS5003;27971;53.902;9.118;2023-01-19T00:11:18;4.02;3.72;
41382;PMS5003;27971;53.902;9.118;2023-01-19T00:13:20;4.98;4.4;
41382;PMS5003;27971;53.902;9.118;2023-01-19T00:15:22;4.59;4.16;
41382;PMS5003;27971;53.902;9.118;2023-01-19T00:17:26;3.96;3.65;
41382;PMS5003;27971;53.902;9.118;2023-01-19T00:19:28;4.39;4.36;
41382;PMS5003;27971;53.902;9.118;2023-01-19T00:21:31;5.32;4.22;
41382;PMS5003;27971;53.902;9.118;2023-01-19T00:23:34;4.54;4.38;
41382;PMS5003;27971;53.902;9.118;2023-01-19T00:25:37;3.6;3.18;
41382;PMS5003;27971;53.902;9.118;2023-01-19T00:27:39;5.03;4.34;
41382;PMS5003;27971;53.902;9.118;2023-01-19T00:29:43;4.62;4.1;
41382;PMS5003;27971;53.902;9.118;2023-01-19T00:31:46;3.63;3.45;
41382;PMS5003;27971;53.902;9.118;2023-01-19T00:33:49;5.04;4.26;
41382;PMS5003;27971;53.902;9.118;2023-01-19T00:35:52;4.26;3.62;
41382;PMS5003;27971;53.902;9.118;2023-01-19T00:37:55;4.66;3.86;
41382;PMS5003;27971;53.902;9.118;2023-01-19T00:39:57;3.61;2.98;
41382;PMS5003;27971;53.902;9.118;2023-01-19T00:41:59;3.21;2.49;
41382;PMS5003;27971;53.902;9.118;2023-01-19T00:44:03;3.98;3.77;
41382;PMS5003;27971;53.902;9.118;2023-01-19T00:46:06;3.7;3.5;
41382;PMS5003;27971;53.902;9.118;2023-01-19T00:48:08;4.89;3.92;
41382;PMS5003;27971;53.902;9.118;2023-01-19T00:50:12;6.29;3.95;
41382;PMS5003;27971;53.902;9.118;2023-01-19T00:52:14;4.29;3.93;
41382;PMS5003;27971;53.902;9.118;2023-01-19T00:54:16;5.51;4.28;
41382;PMS5003;27971;53.902;9.118;2023-01-19T00:56:19;4.4;3.9;
41382;PMS5003;27971;53.902;9.118;2023-01-19T00:58:21;3.97;3.77;
41382;PMS5003;27971;53.902;9.118;2023-01-19T01:00:24;4.43;4.03;
41382;PMS5003;27971;53.902;9.118;2023-01-19T01:02:26;4.46;3.99;
41382;PMS5003;27971;53.902;9.118;2023-01-19T01:04:28;3.32;3.08;
41382;PMS5003;27971;53.902;9.118;2023-01-19T01:06:32;4.33;3.76;
41382;PMS5003;27971;53.902;9.118;2023-01-19T01:08:34;3.86;3.5;
41382;PMS5003;27971;53.902;9.118;2023-01-19T01:10:38;4.78;3.54;
41382;PMS5003;27971;53.902;9.118;2023-01-19T01:12:40;3.89;3.89;
41382;PMS5003;27971;53.902;9.118;2023-01-19T01:14:43;3.42;3.27;
41382;PMS5003;27971;53.902;9.118;2023-01-19T01:16:46;3.36;3.12;
41382;PMS5003;27971;53.902;9.118;2023-01-19T01:18:48;4.22;3.68;
41382;PMS5003;27971;53.902;9.118;2023-01-19T01:20:50;2.9;2.9;
41382;PMS5003;27971;53.902;9.118;2023-01-19T01:22:53;3.56;3.26;
41382;PMS5003;27971;53.902;9.118;2023-01-19T01:24:55;3.52;3.31;
41382;PMS5003;27971;53.902;9.118;2023-01-19T01:26:57;3.92;3.57;
41382;PMS5003;27971;53.902;9.118;2023-01-19T01:29:00;4.44;3.83;
41382;PMS5003;27971;53.902;9.118;2023-01-19T01:31:02;4.88;4.04;
41382;PMS5003;27971;53.902;9.118;2023-01-19T01:33:05;4.14;3.77;
41382;PMS5003;27971;53.902;9.118;2023-01-19T01:35:08;3.87;3.57;
41382;PMS5003;27971;53.902;9.118;2023-01-19T01:37:11;3.79;3.56;
41382;PMS5003;27971;53.902;9.118;2023-01-19T01:39:14;4.26;3.69;
41382;PMS5003;27971;53.902;9.118;2023-01-19T01:41:16;4.12;2.66;
41382;PMS5003;27971;53.902;9.118;2023-01-19T01:43:19;3.45;3.25;
41382;PMS5003;27971;53.902;9.118;2023-01-19T01:45:25;3.59;3.26;
41382;PMS5003;27971;53.902;9.118;2023-01-19T01:47:26;4.86;4.22;
41382;PMS5003;27971;53.902;9.118;2023-01-19T01:49:27;3.56;3.3;
41382;PMS5003;27971;53.902;9.118;2023-01-19T01:51:31;4.04;3.52;
41382;PMS5003;27971;53.902;9.118;2023-01-19T01:53:34;3.71;3.1;
41382;PMS5003;27971;53.902;9.118;2023-01-19T01:55:37;3.6;3.07;
41382;PMS5003;27971;53.902;9.118;2023-01-19T01:57:41;4.99;4.52;
41382;PMS5003;27971;53.902;9.118;2023-01-19T01:59:42;3.95;3.71;
41382;PMS5003;27971;53.902;9.118;2023-01-19T02:01:44;3.92;3.92;
41382;PMS5003;27971;53.902;9.118;2023-01-19T02:03:46;3.49;3.49;
41382;PMS5003;27971;53.902;9.118;2023-01-19T02:05:48;3.59;3.42;
41382;PMS5003;27971;53.902;9.118;2023-01-19T02:07:53;3.18;3.06;
41382;PMS5003;27971;53.902;9.118;2023-01-19T02:09:54;3.0;2.59;
41382;PMS5003;27971;53.902;9.118;2023-01-19T02:11:56;2.98;2.7;
41382;PMS5003;27971;53.902;9.118;2023-01-19T02:13:58;5.44;4.07;
41382;PMS5003;27971;53.902;9.118;2023-01-19T02:16:02;4.42;4.15;
41382;PMS5003;27971;53.902;9.118;2023-01-19T02:18:04;4.05;3.6;
41382;PMS5003;27971;53.902;9.118;2023-01-19T02:20:07;4.34;3.43;
41382;PMS5003;27971;53.902;9.118;2023-01-19T02:22:10;3.31;3.24;
41382;PMS5003;27971;53.902;9.118;2023-01-19T02:24:11;3.57;3.06;
41382;PMS5003;27971;53.902;9.118;2023-01-19T02:26:14;3.22;2.66;
41382;PMS5003;27971;53.902;9.118;2023-01-19T02:28:17;4.62;3.86;
41382;PMS5003;27971;53.902;9.118;2023-01-19T02:30:20;4.51;3.96;
41382;PMS5003;27971;53.902;9.118;2023-01-19T02:32:22;3.47;3.29;
41382;PMS5003;27971;53.902;9.118;2023-01-19T02:34:25;3.71;3.61;
41382;PMS5003;27971;53.902;9.118;2023-01-19T02:36:30;4.0;3.72;
41382;PMS5003;27971;53.902;9.118;2023-01-19T02:38:31;3.16;2.92;
41382;PMS5003;27971;53.902;9.118;2023-01-19T02:40:34;4.02;3.54;
41382;PMS5003;27971;53.902;9.118;2023-01-19T02:42:38;3.36;2.89;
41382;PMS5003;27971;53.902;9.118;2023-01-19T02:44:42;3.49;3.41;
41382;PMS5003;27971;53.902;9.118;2023-01-19T02:46:43;3.55;3.12;
41382;PMS5003;27971;53.902;9.118;2023-01-19T02:48:45;2.29;2.29;
41382;PMS5003;27971;53.902;9.118;2023-01-19T02:50:48;3.11;2.61;
41382;PMS5003;27971;53.902;9.118;2023-01-19T02:52:52;4.28;3.78;
41382;PMS5003;27971;53.902;9.118;2023-01-19T02:54:57;4.05;3.7;
41382;PMS5003;27971;53.902;9.118;2023-01-19T02:57:00;4.63;3.59;
41382;PMS5003;27971;53.902;9.118;2023-01-19T02:59:00;3.55;2.63;
41382;PMS5003;27971;53.902;9.118;2023-01-19T03:01:04;4.44;3.79;
41382;PMS5003;27971;53.902;9.118;2023-01-19T03:03:10;3.23;2.96;
41382;PMS5003;27971;53.902;9.118;2023-01-19T03:05:14;3.91;2.78;
41382;PMS5003;27971;53.902;9.118;2023-01-19T03:07:13;4.67;4.25;
41382;PMS5003;27971;53.902;9.118;2023-01-19T03:09:17;4.22;3.58;
41382;PMS5003;27971;53.902;9.118;2023-01-19T03:11:17;3.83;3.34;
41382;PMS5003;27971;53.902;9.118;2023-01-19T03:13:22;3.57;3.46;
41382;PMS5003;27971;53.902;9.118;2023-01-19T03:15:24;3.63;3.44;
41382;PMS5003;27971;53.902;9.118;2023-01-19T03:17:26;4.75;4.22;
41382;PMS5003;27971;53.902;9.118;2023-01-19T03:19:31;3.41;3.12;
41382;PMS5003;27971;53.902;9.118;2023-01-19T03:21:33;4.4;3.61;
41382;PMS5003;27971;53.902;9.118;2023-01-19T03:23:36;2.77;2.77;
41382;PMS5003;27971;53.902;9.118;2023-01-19T03:25:40;3.33;3.18;
41382;PMS5003;27971;53.902;9.118;2023-01-19T03:27:41;3.45;3.45;
41382;PMS5003;27971;53.902;9.118;2023-01-19T03:29:45;4.02;3.18;
41382;PMS5003;27971;53.902;9.118;2023-01-19T03:31:46;3.35;3.35;
41382;PMS5003;27971;53.902;9.118;2023-01-19T03:33:49;3.17;3.17;
41382;PMS5003;27971;53.902;9.118;2023-01-19T03:35:53;2.93;2.93;
41382;PMS5003;27971;53.902;9.118;2023-01-19T03:37:55;3.77;3.43;
41382;PMS5003;27971;53.902;9.118;2023-01-19T03:39:57;3.48;3.31;
41382;PMS5003;27971;53.902;9.118;2023-01-19T03:42:00;4.18;3.57;
41382;PMS5003;27971;53.902;9.118;2023-01-19T03:44:03;3.35;3.06;
41382;PMS5003;27971;53.902;9.118;2023-01-19T03:46:06;3.82;3.57;
41382;PMS5003;27971;53.902;9.118;2023-01-19T03:48:08;4.25;3.96;
41382;PMS5003;27971;53.902;9.118;2023-01-19T03:50:13;3.96;3.14;
41382;PMS5003;27971;53.902;9.118;2023-01-19T03:52:14;3.95;3.3;
41382;PMS5003;27971;53.902;9.118;2023-01-19T03:54:16;4.01;3.18;
41382;PMS5003;27971;53.902;9.118;2023-01-19T03:56:20;3.34;2.96;
41382;PMS5003;27971;53.902;9.118;2023-01-19T03:58:22;3.62;3.02;
41382;PMS5003;27971;53.902;9.118;2023-01-19T04:00:25;4.02;3.06;
41382;PMS5003;27971;53.902;9.118;2023-01-19T04:02:27;3.8;3.11;
41382;PMS5003;27971;53.902;9.118;2023-01-19T04:04:30;4.2;3.42;
41382;PMS5003;27971;53.902;9.118;2023-01-19T04:06:33;3.58;3.33;
41382;PMS5003;27971;53.902;9.118;2023-01-19T04:08:36;4.21;4.21;
41382;PMS5003;27971;53.902;9.118;2023-01-19T04:10:38;3.48;3.33;
41382;PMS5003;27971;53.902;9.118;2023-01-19T04:12:41;3.92;3.67;
41382;PMS5003;27971;53.902;9.118;2023-01-19T04:14:44;2.95;2.64;
41382;PMS5003;27971;53.902;9.118;2023-01-19T04:16:47;3.18;2.82;
41382;PMS5003;27971;53.902;9.118;2023-01-19T04:18:49;3.73;3.39;
41382;PMS5003;27971;53.902;9.118;2023-01-19T04:20:53;3.62;3.35;
41382;PMS5003;27971;53.902;9.118;2023-01-19T04:22:57;2.98;2.85;
41382;PMS5003;27971;53.902;9.118;2023-01-19T04:24:58;4.1;3.65;
41382;PMS5003;27971;53.902;9.118;2023-01-19T04:27:01;3.45;3.18;
41382;PMS5003;27971;53.902;9.118;2023-01-19T04:29:04;4.15;3.93;
41382;PMS5003;27971;53.902;9.118;2023-01-19T04:31:07;3.96;3.69;
41382;PMS5003;27971;53.902;9.118;2023-01-19T04:33:10;3.4;3.33;
41382;PMS5003;27971;53.902;9.118;2023-01-19T04:35:13;3.94;3.31;
41382;PMS5003;27971;53.902;9.118;2023-01-19T04:37:15;3.17;2.88;
41382;PMS5003;27971;53.902;9.118;2023-01-19T04:39:17;3.77;2.67;
41382;PMS5003;27971;53.902;9.118;2023-01-19T04:41:20;3.29;3.11;
41382;PMS5003;27971;53.902;9.118;2023-01-19T04:43:22;3.08;3.04;
41382;PMS5003;27971;53.902;9.118;2023-01-19T04:45:25;2.86;2.68;
41382;PMS5003;27971;53.902;9.118;2023-01-19T04:47:27;3.65;3.4;
41382;PMS5003;27971;53.902;9.118;2023-01-19T04:49:30;2.86;2.68;
41382;PMS5003;27971;53.902;9.118;2023-01-19T04:51:33;3.39;2.68;
41382;PMS5003;27971;53.902;9.118;2023-01-19T04:53:36;3.7;2.88;
41382;PMS5003;27971;53.902;9.118;2023-01-19T04:55:39;3.68;3.32;
41382;PMS5003;27971;53.902;9.118;2023-01-19T04:57:41;3.68;3.39;
41382;PMS5003;27971;53.902;9.118;2023-01-19T04:59:44;2.56;2.49;
41382;PMS5003;27971;53.902;9.118;2023-01-19T05:01:47;3.48;2.8;
41382;PMS5003;27971;53.902;9.118;2023-01-19T05:03:50;3.79;3.25;
41382;PMS5003;27971;53.902;9.118;2023-01-19T05:05:53;3.43;3.32;
41382;PMS5003;27971;53.902;9.118;2023-01-19T05:07:56;2.66;2.66;
41382;PMS5003;27971;53.902;9.118;2023-01-19T05:09:59;3.51;2.95;
41382;PMS5003;27971;53.902;9.118;2023-01-19T05:12:02;3.05;3.0;
41382;PMS5003;27971;53.902;9.118;2023-01-19T05:14:04;4.1;3.02;
41382;PMS5003;27971;53.902;9.118;2023-01-19T05:16:07;3.0;2.65;
41382;PMS5003;27971;53.902;9.118;2023-01-19T05:18:09;3.54;3.5;
41382;PMS5003;27971;53.902;9.118;2023-01-19T05:20:12;3.85;3.12;
41382;PMS5003;27971;53.902;9.118;2023-01-19T05:22:15;3.27;3.14;
41382;PMS5003;27971;53.902;9.118;2023-01-19T05:24:18;3.89;3.79;
41382;PMS5003;27971;53.902;9.118;2023-01-19T05:26:21;3.23;3.23;
41382;PMS5003;27971;53.902;9.118;2023-01-19T05:28:24;2.73;2.69;
41382;PMS5003;27971;53.902;9.118;2023-01-19T05:30:27;4.02;2.56;
41382;PMS5003;27971;53.902;9.118;2023-01-19T05:32:29;3.43;3.07;
41382;PMS5003;27971;53.902;9.118;2023-01-19T05:34:32;2.74;2.33;
41382;PMS5003;27971;53.902;9.118;2023-01-19T05:36:35;3.88;3.3;
41382;PMS5003;27971;53.902;9.118;2023-01-19T05:38:37;2.85;2.56;
41382;PMS5003;27971;53.902;9.118;2023-01-19T05:40:41;2.65;2.44;
41382;PMS5003;27971;53.902;9.118;2023-01-19T05:42:44;2.51;2.31;
41382;PMS5003;27971;53.902;9.118;2023-01-19T05:44:46;3.67;3.21;
41382;PMS5003;27971;53.902;9.118;2023-01-19T05:46:48;3.22;2.63;
41382;PMS5003;27971;53.902;9.118;2023-01-19T05:48:51;3.26;2.89;
41382;PMS5003;27971;53.902;9.118;2023-01-19T05:50:55;4.07;2.86;
41382;PMS5003;27971;53.902;9.118;2023-01-19T05:52:56;2.99;2.67;
41382;PMS5003;27971;53.902;9.118;2023-01-19T05:54:59;3.1;3.1;
41382;PMS5003;27971;53.902;9.118;2023-01-19T05:57:01;2.59;2.36;
41382;PMS5003;27971;53.902;9.118;2023-01-19T05:59:04;3.67;3.3;
41382;PMS5003;27971;53.902;9.118;2023-01-19T06:01:07;3.37;2.8;
41382;PMS5003;27971;53.902;9.118;2023-01-19T06:03:09;3.1;2.85;
41382;PMS5003;27971;53.902;9.118;2023-01-19T06:05:12;2.96;2.67;
41382;PMS5003;27971;53.902;9.118;2023-01-19T06:07:14;4.14;3.37;
41382;PMS5003;27971;53.902;9.118;2023-01-19T06:09:17;3.79;3.13;
41382;PMS5003;27971;53.902;9.118;2023-01-19T06:11:19;2.98;2.94;
41382;PMS5003;27971;53.902;9.118;2023-01-19T06:13:21;3.31;3.11;
41382;PMS5003;27971;53.902;9.118;2023-01-19T06:15:24;3.28;3.11;
41382;PMS5003;27971;53.902;9.118;2023-01-19T06:17:26;3.14;3.04;
41382;PMS5003;27971;53.902;9.118;2023-01-19T06:19:28;3.51;2.71;
41382;PMS5003;27971;53.902;9.118;2023-01-19T06:21:31;3.27;2.77;
41382;PMS5003;27971;53.902;9.118;2023-01-19T06:23:34;3.42;2.96;
41382;PMS5003;27971;53.902;9.118;2023-01-19T06:25:37;4.1;3.03;
41382;PMS5003;27971;53.902;9.118;2023-01-19T06:27:42;3.4;2.99;
41382;PMS5003;27971;53.902;9.118;2023-01-19T06:29:42;3.43;3.24;
41382;PMS5003;27971;53.902;9.118;2023-01-19T06:31:44;2.99;2.99;
41382;PMS5003;27971;53.902;9.118;2023-01-19T06:33:47;3.41;3.41;
41382;PMS5003;27971;53.902;9.118;2023-01-19T06:35:50;3.49;3.06;
41382;PMS5003;27971;53.902;9.118;2023-01-19T06:37:53;3.13;2.62;
41382;PMS5003;27971;53.902;9.118;2023-01-19T06:39:56;2.64;2.57;
41382;PMS5003;27971;53.902;9.118;2023-01-19T06:41:58;2.52;2.26;
41382;PMS5003;27971;53.902;9.118;2023-01-19T06:44:01;3.9;3.27;
41382;PMS5003;27971;53.902;9.118;2023-01-19T06:46:04;3.29;2.99;
41382;PMS5003;27971;53.902;9.118;2023-01-19T06:48:07;2.32;2.16;
41382;PMS5003;27971;53.902;9.118;2023-01-19T06:50:10;2.86;2.56;
41382;PMS5003;27971;53.902;9.118;2023-01-19T06:52:12;3.73;2.93;
41382;PMS5003;27971;53.902;9.118;2023-01-19T06:54:15;3.66;3.29;
41382;PMS5003;27971;53.902;9.118;2023-01-19T06:56:17;2.72;2.56;
41382;PMS5003;27971;53.902;9.118;2023-01-19T06:58:19;3.5;3.2;
41382;PMS5003;27971;53.902;9.118;2023-01-19T07:00:22;3.29;2.99;
41382;PMS5003;27971;53.902;9.118;2023-01-19T07:02:24;3.24;3.01;
41382;PMS5003;27971;53.902;9.118;2023-01-19T07:04:27;3.24;3.08;
41382;PMS5003;27971;53.902;9.118;2023-01-19T07:06:29;3.0;3.0;
41382;PMS5003;27971;53.902;9.118;2023-01-19T07:08:31;3.06;2.66;
41382;PMS5003;27971;53.902;9.118;2023-01-19T07:10:34;3.18;3.18;
41382;PMS5003;27971;53.902;9.118;2023-01-19T07:12:37;3.59;3.59;
41382;PMS5003;27971;53.902;9.118;2023-01-19T07:14:40;2.44;2.44;
41382;PMS5003;27971;53.902;9.118;2023-01-19T07:16:43;2.06;1.96;
41382;PMS5003;27971;53.902;9.118;2023-01-19T07:18:46;3.31;3.31;
41382;PMS5003;27971;53.902;9.118;2023-01-19T07:20:48;3.3;2.94;
41382;PMS5003;27971;53.902;9.118;2023-01-19T07:22:54;3.77;3.23;
41382;PMS5003;27971;53.902;9.118;2023-01-19T07:24:53;2.93;2.34;
41382;PMS5003;27971;53.902;9.118;2023-01-19T07:26:56;4.19;2.9;
41382;PMS5003;27971;53.902;9.118;2023-01-19T07:28:59;2.8;2.66;
41382;PMS5003;27971;53.902;9.118;2023-01-19T07:31:01;3.17;2.74;
41382;PMS5003;27971;53.902;9.118;2023-01-19T07:33:03;3.32;2.88;
41382;PMS5003;27971;53.902;9.118;2023-01-19T07:35:06;3.06;2.77;
41382;PMS5003;27971;53.902;9.118;2023-01-19T07:37:09;3.13;2.98;
41382;PMS5003;27971;53.902;9.118;2023-01-19T07:39:12;2.77;2.57;
41382;PMS5003;27971;53.902;9.118;2023-01-19T07:41:15;3.53;3.29;
41382;PMS5003;27971;53.902;9.118;2023-01-19T07:43:17;3.18;2.78;
41382;PMS5003;27971;53.902;9.118;2023-01-19T07:45:20;3.32;3.1;
41382;PMS5003;27971;53.902;9.118;2023-01-19T07:47:22;3.27;3.23;
41382;PMS5003;27971;53.902;9.118;2023-01-19T07:49:25;4.03;3.5;
41382;PMS5003;27971;53.902;9.118;2023-01-19T07:51:27;2.72;2.41;
41382;PMS5003;27971;53.902;9.118;2023-01-19T07:53:29;4.07;3.43;
41382;PMS5003;27971;53.902;9.118;2023-01-19T07:55:32;2.98;2.88;
41382;PMS5003;27971;53.902;9.118;2023-01-19T07:57:35;3.16;2.81;
41382;PMS5003;27971;53.902;9.118;2023-01-19T07:59:37;2.49;2.32;
41382;PMS5003;27971;53.902;9.118;2023-01-19T08:01:40;2.53;2.16;
41382;PMS5003;27971;53.902;9.118;2023-01-19T08:03:42;3.43;3.04;
41382;PMS5003;27971;53.902;9.118;2023-01-19T08:05:48;2.92;2.69;
41382;PMS5003;27971;53.902;9.118;2023-01-19T08:07:48;3.0;2.82;
41382;PMS5003;27971;53.902;9.118;2023-01-19T08:09:51;3.8;3.77;
41382;PMS5003;27971;53.902;9.118;2023-01-19T08:11:53;2.56;2.56;
41382;PMS5003;27971;53.902;9.118;2023-01-19T08:13:55;4.12;3.56;
41382;PMS5003;27971;53.902;9.118;2023-01-19T08:15:57;3.39;3.18;
41382;PMS5003;27971;53.902;9.118;2023-01-19T08:18:01;2.86;2.47;
41382;PMS5003;27971;53.902;9.118;2023-01-19T08:20:03;3.64;3.17;
41382;PMS5003;27971;53.902;9.118;2023-01-19T08:22:05;3.29;3.02;
41382;PMS5003;27971;53.902;9.118;2023-01-19T08:24:09;3.98;3.19;
41382;PMS5003;27971;53.902;9.118;2023-01-19T08:26:16;3.85;3.35;
41382;PMS5003;27971;53.902;9.118;2023-01-19T08:28:14;3.48;3.23;
41382;PMS5003;27971;53.902;9.118;2023-01-19T08:30:17;3.29;2.86;
41382;PMS5003;27971;53.902;9.118;2023-01-19T08:32:20;3.19;2.77;
41382;PMS5003;27971;53.902;9.118;2023-01-19T08:34:22;3.73;3.3;
41382;PMS5003;27971;53.902;9.118;2023-01-19T08:36:24;4.28;4.01;
41382;PMS5003;27971;53.902;9.118;2023-01-19T08:38:27;3.98;3.44;
41382;PMS5003;27971;53.902;9.118;2023-01-19T08:40:29;3.49;3.2;
41382;PMS5003;27971;53.902;9.118;2023-01-19T08:42:32;3.79;3.18;
41382;PMS5003;27971;53.902;9.118;2023-01-19T08:44:35;3.85;2.97;
41382;PMS5003;27971;53.902;9.118;2023-01-19T08:46:38;3.98;3.9;
41382;PMS5003;27971;53.902;9.118;2023-01-19T08:48:40;4.02;3.78;
41382;PMS5003;27971;53.902;9.118;2023-01-19T08:50:44;3.56;3.24;
41382;PMS5003;27971;53.902;9.118;2023-01-19T08:52:46;3.19;2.78;
41382;PMS5003;27971;53.902;9.118;2023-01-19T08:54:49;3.9;3.55;
41382;PMS5003;27971;53.902;9.118;2023-01-19T08:56:53;4.1;3.47;
41382;PMS5003;27971;53.902;9.118;2023-01-19T08:58:55;3.56;3.39;
41382;PMS5003;27971;53.902;9.118;2023-01-19T09:00:58;4.79;4.22;
41382;PMS5003;27971;53.902;9.118;2023-01-19T09:03:01;3.67;3.67;
41382;PMS5003;27971;53.902;9.118;2023-01-19T09:05:04;4.0;3.57;
41382;PMS5003;27971;53.902;9.118;2023-01-19T09:07:06;3.83;3.73;
41382;PMS5003;27971;53.902;9.118;2023-01-19T09:09:08;3.31;3.14;
41382;PMS5003;27971;53.902;9.118;2023-01-19T09:11:11;3.73;3.06;
41382;PMS5003;27971;53.902;9.118;2023-01-19T09:13:13;3.65;3.07;
41382;PMS5003;27971;53.902;9.118;2023-01-19T09:15:15;4.12;3.65;
41382;PMS5003;27971;53.902;9.118;2023-01-19T09:17:17;4.22;3.92;
41382;PMS5003;27971;53.902;9.118;2023-01-19T09:19:20;4.21;3.78;
41382;PMS5003;27971;53.902;9.118;2023-01-19T09:21:23;4.18;3.98;
41382;PMS5003;27971;53.902;9.118;2023-01-19T09:23:26;4.91;3.84;
41382;PMS5003;27971;53.902;9.118;2023-01-19T09:25:28;6.03;5.17;
41382;PMS5003;27971;53.902;9.118;2023-01-19T09:27:31;6.03;5.13;
41382;PMS5003;27971;53.902;9.118;2023-01-19T09:29:33;7.6;6.61;
41382;PMS5003;27971;53.902;9.118;2023-01-19T09:31:35;7.62;6.89;
41382;PMS5003;27971;53.902;9.118;2023-01-19T09:33:38;7.53;6.1;
41382;PMS5003;27971;53.902;9.118;2023-01-19T09:35:40;7.13;5.83;
41382;PMS5003;27971;53.902;9.118;2023-01-19T09:37:44;7.82;5.92;
41382;PMS5003;27971;53.902;9.118;2023-01-19T09:39:47;10.56;6.96;
41382;PMS5003;27971;53.902;9.118;2023-01-19T09:41:50;6.83;5.54;
41382;PMS5003;27971;53.902;9.118;2023-01-19T09:43:53;7.65;6.05;
41382;PMS5003;27971;53.902;9.118;2023-01-19T09:45:56;8.97;6.94;
41382;PMS5003;27971;53.902;9.118;2023-01-19T09:47:58;7.22;6.53;
41382;PMS5003;27971;53.902;9.118;2023-01-19T09:50:02;8.57;6.18;
41382;PMS5003;27971;53.902;9.118;2023-01-19T09:52:04;9.4;8.87;
41382;PMS5003;27971;53.902;9.118;2023-01-19T09:54:10;9.25;7.57;
41382;PMS5003;27971;53.902;9.118;2023-01-19T09:56:11;7.92;6.74;
41382;PMS5003;27971;53.902;9.118;2023-01-19T09:58:13;8.67;6.65;
41382;PMS5003;27971;53.902;9.118;2023-01-19T10:00:16;8.57;6.57;
41382;PMS5003;27971;53.902;9.118;2023-01-19T10:02:22;10.76;7.72;
41382;PMS5003;27971;53.902;9.118;2023-01-19T10:04:25;9.85;8.51;
41382;PMS5003;27971;53.902;9.118;2023-01-19T10:06:24;10.29;7.88;
41382;PMS5003;27971;53.902;9.118;2023-01-19T10:08:28;9.09;7.38;
41382;PMS5003;27971;53.902;9.118;2023-01-19T10:10:31;8.3;7.39;
41382;PMS5003;27971;53.902;9.118;2023-01-19T10:12:36;9.01;6.39;
41382;PMS5003;27971;53.902;9.118;2023-01-19T10:14:39;12.17;9.18;
41382;PMS5003;27971;53.902;9.118;2023-01-19T10:16:40;8.47;7.24;
41382;PMS5003;27971;53.902;9.118;2023-01-19T10:18:43;8.48;7.61;
41382;PMS5003;27971;53.902;9.118;2023-01-19T10:20:47;9.92;8.54;
41382;PMS5003;27971;53.902;9.118;2023-01-19T10:22:48;10.45;7.33;
41382;PMS5003;27971;53.902;9.118;2023-01-19T10:24:52;9.01;8.04;
41382;PMS5003;27971;53.902;9.118;2023-01-19T10:26:55;10.17;7.85;
41382;PMS5003;27971;53.902;9.118;2023-01-19T10:29:01;9.52;7.37;
41382;PMS5003;27971;53.902;9.118;2023-01-19T10:31:01;8.62;7.51;
41382;PMS5003;27971;53.902;9.118;2023-01-19T10:33:04;10.52;7.68;
41382;PMS5003;27971;53.902;9.118;2023-01-19T10:35:09;9.08;7.31;
41382;PMS5003;27971;53.902;9.118;2023-01-19T10:37:13;7.93;6.04;
41382;PMS5003;27971;53.902;9.118;2023-01-19T10:39:13;9.88;8.18;
41382;PMS5003;27971;53.902;9.118;2023-01-19T10:41:17;9.22;8.08;
41382;PMS5003;27971;53.902;9.118;2023-01-19T10:43:35;10.14;7.99;
41382;PMS5003;27971;53.902;9.118;2023-01-19T10:45:22;10.62;7.84;
41382;PMS5003;27971;53.902;9.118;2023-01-19T10:47:25;11.76;7.89;
41382;PMS5003;27971;53.902;9.118;2023-01-19T10:49:28;8.52;6.51;
41382;PMS5003;27971;53.902;9.118;2023-01-19T10:51:31;9.17;7.24;
41382;PMS5003;27971;53.902;9.118;2023-01-19T10:53:33;9.73;7.88;
41382;PMS5003;27971;53.902;9.118;2023-01-19T10:55:40;7.87;7.21;
41382;PMS5003;27971;53.902;9.118;2023-01-19T10:57:40;8.03;6.52;
41382;PMS5003;27971;53.902;9.118;2023-01-19T10:59:46;8.43;6.9;
41382;PMS5003;27971;53.902;9.118;2023-01-19T11:01:44;8.49;6.7;
41382;PMS5003;27971;53.902;9.118;2023-01-19T11:03:47;9.38;8.05;
41382;PMS5003;27971;53.902;9.118;2023-01-19T11:05:50;8.04;7.01;
41382;PMS5003;27971;53.902;9.118;2023-01-19T11:07:52;8.59;7.22;
41382;PMS5003;27971;53.902;9.118;2023-01-19T11:10:11;11.21;8.91;
41382;PMS5003;27971;53.902;9.118;2023-01-19T11:11:58;10.08;8.54;
41382;PMS5003;27971;53.902;9.118;2023-01-19T11:14:02;9.48;8.71;
41382;PMS5003;27971;53.902;9.118;2023-01-19T11:16:04;7.34;6.51;
41382;PMS5003;27971;53.902;9.118;2023-01-19T11:18:06;10.42;7.3;
41382;PMS5003;27971;53.902;9.118;2023-01-19T11:20:20;9.1;6.98;
41382;PMS5003;27971;53.902;9.118;2023-01-19T11:22:14;10.05;7.94;
41382;PMS5003;27971;53.902;9.118;2023-01-19T11:24:14;8.87;6.48;
41382;PMS5003;27971;53.902;9.118;2023-01-19T11:26:23;7.38;6.13;
41382;PMS5003;27971;53.902;9.118;2023-01-19T11:28:21;11.31;8.39;
41382;PMS5003;27971;53.902;9.118;2023-01-19T11:30:23;10.19;7.84;
41382;PMS5003;27971;53.902;9.118;2023-01-19T11:32:26;9.13;7.98;
41382;PMS5003;27971;53.902;9.118;2023-01-19T11:34:30;8.18;6.08;
41382;PMS5003;27971;53.902;9.118;2023-01-19T11:36:33;11.18;7.81;
41382;PMS5003;27971;53.902;9.118;2023-01-19T11:38:39;8.71;6.88;
41382;PMS5003;27971;53.902;9.118;2023-01-19T11:40:38;8.76;7.45;
41382;PMS5003;27971;53.902;9.118;2023-01-19T11:42:41;7.92;6.65;
41382;PMS5003;27971;53.902;9.118;2023-01-19T11:44:45;9.03;6.98;
41382;PMS5003;27971;53.902;9.118;2023-01-19T11:46:47;9.26;7.75;
41382;PMS5003;27971;53.902;9.118;2023-01-19T11:48:51;9.07;6.49;
41382;PMS5003;27971;53.902;9.118;2023-01-19T11:50:52;8.07;6.44;
41382;PMS5003;27971;53.902;9.118;2023-01-19T11:52:56;9.26;8.16;
41382;PMS5003;27971;53.902;9.118;2023-01-19T11:54:59;8.91;7.2;
41382;PMS5003;27971;53.902;9.118;2023-01-19T11:57:00;8.96;7.53;
41382;PMS5003;27971;53.902;9.118;2023-01-19T11:59:02;10.3;8.65;
41382;PMS5003;27971;53.902;9.118;2023-01-19T12:01:06;7.59;5.82;
41382;PMS5003;27971;53.902;9.118;2023-01-19T12:03:11;6.4;5.55;
41382;PMS5003;27971;53.902;9.118;2023-01-19T12:05:11;8.55;6.37;
41382;PMS5003;27971;53.902;9.118;2023-01-19T12:07:13;7.65;5.91;
41382;PMS5003;27971;53.902;9.118;2023-01-19T12:09:17;9.1;6.48;
41382;PMS5003;27971;53.902;9.118;2023-01-19T12:11:20;8.92;6.95;
41382;PMS5003;27971;53.902;9.118;2023-01-19T12:13:22;9.55;7.88;
41382;PMS5003;27971;53.902;9.118;2023-01-19T12:15:25;8.37;6.98;
41382;PMS5003;27971;53.902;9.118;2023-01-19T12:17:28;9.99;7.27;
41382;PMS5003;27971;53.902;9.118;2023-01-19T12:19:34;7.4;6.23;
41382;PMS5003;27971;53.902;9.118;2023-01-19T12:21:33;9.15;7.38;
41382;PMS5003;27971;53.902;9.118;2023-01-19T12:23:40;6.92;5.94;
41382;PMS5003;27971;53.902;9.118;2023-01-19T12:25:43;9.12;7.24;
41382;PMS5003;27971;53.902;9.118;2023-01-19T12:27:43;7.47;7.29;
41382;PMS5003;27971;53.902;9.118;2023-01-19T12:29:46;9.21;7.37;
41382;PMS5003;27971;53.902;9.118;2023-01-19T12:34:39;8.17;7.74;
41382;PMS5003;27971;53.902;9.118;2023-01-19T12:34:44;6.0;5.0;
41382;PMS5003;27971;53.902;9.118;2023-01-19T12:36:46;8.02;5.73;
41382;PMS5003;27971;53.902;9.118;2023-01-19T12:38:49;6.52;5.46;
41382;PMS5003;27971;53.902;9.118;2023-01-19T12:41:04;8.21;7.38;
41382;PMS5003;27971;53.902;9.118;2023-01-19T12:42:56;7.69;6.29;
41382;PMS5003;27971;53.902;9.118;2023-01-19T12:45:03;6.56;5.75;
41382;PMS5003;27971;53.902;9.118;2023-01-19T12:47:16;7.6;6.29;
41382;PMS5003;27971;53.902;9.118;2023-01-19T12:49:03;8.32;5.57;